createdAt,value
2018-09-11T00:00:56.544Z,96.5
2018-09-11T00:05:58.945Z,96.3
2018-09-11T00:11:01.428Z,95.6
2018-09-11T00:16:03.932Z,96.4
2018-09-11T00:21:06.436Z,96
2018-09-11T00:26:08.796Z,96.5
2018-09-11T00:31:11.522Z,97.6
2018-09-11T00:36:13.696Z,98.9
2018-09-11T00:41:16.175Z,99.1
2018-09-11T00:46:19.026Z,99.9
2018-09-11T00:51:21.560Z,98.8
2018-09-11T00:56:23.600Z,99.9
2018-09-11T01:01:26.025Z,99.9
2018-09-11T01:06:28.447Z,99.9
2018-09-11T01:11:30.897Z,99.9
2018-09-11T01:16:33.405Z,99.9
2018-09-11T01:21:35.832Z,99.9
2018-09-11T01:26:38.421Z,99.9
2018-09-11T01:31:40.746Z,99.9
2018-09-11T01:36:43.205Z,99.9
2018-09-11T01:41:45.666Z,99.9
2018-09-11T01:46:48.198Z,99.9
2018-09-11T01:51:50.571Z,99.9
2018-09-11T01:56:53.113Z,99.9
2018-09-11T02:01:55.482Z,99.9
2018-09-11T02:06:57.950Z,99.9
2018-09-11T02:12:00.403Z,99.9
2018-09-11T02:17:03.016Z,99.9
2018-09-11T02:22:05.365Z,99.9
2018-09-11T02:27:07.805Z,99.9
2018-09-11T02:32:10.261Z,99.9
2018-09-11T02:37:12.720Z,99.9
2018-09-11T02:42:15.186Z,99.9
2018-09-11T02:47:17.715Z,99.9
2018-09-11T02:52:20.097Z,99.9
2018-09-11T02:57:22.639Z,99.9
2018-09-11T03:02:25.017Z,99.9
2018-09-11T03:07:27.479Z,99.9
2018-09-11T03:12:29.997Z,99.9
2018-09-11T03:17:32.379Z,99.9
2018-09-11T03:22:34.819Z,99.9
2018-09-11T03:27:37.336Z,99.9
2018-09-11T03:32:39.734Z,99.9
2018-09-11T03:37:42.177Z,99.9
2018-09-11T03:42:44.641Z,99.9
2018-09-11T03:47:47.143Z,99.9
2018-09-11T03:52:49.674Z,99.9
2018-09-11T03:57:52.072Z,99.9
2018-09-11T04:02:54.479Z,99.9
2018-09-11T04:07:56.996Z,99.9
2018-09-11T04:12:59.408Z,99.9
2018-09-11T04:18:02.028Z,99.9
2018-09-11T04:23:04.330Z,99.9
2018-09-11T04:28:11.920Z,99.9
2018-09-11T04:33:09.350Z,99.9
2018-09-11T04:38:11.746Z,99.9
2018-09-11T04:43:14.148Z,99.9
2018-09-11T04:48:16.614Z,99.9
2018-09-11T04:53:19.141Z,99.9
2018-09-11T04:58:21.520Z,99.9
2018-09-11T05:03:24.046Z,99.9
2018-09-11T05:08:26.436Z,99.9
2018-09-11T05:13:28.890Z,99.9
2018-09-11T05:18:31.429Z,99.9
2018-09-11T05:23:33.994Z,99.9
2018-09-11T05:28:36.336Z,99.9
2018-09-11T05:33:38.721Z,99.9
2018-09-11T05:38:41.281Z,99.9
2018-09-11T05:43:43.893Z,99.9
2018-09-11T05:48:46.099Z,99.9
2018-09-11T05:53:48.560Z,99.9
2018-09-11T05:58:51.027Z,99.9
2018-09-11T06:03:53.564Z,99.9
2018-09-11T06:08:55.934Z,99.9
2018-09-11T06:13:58.493Z,99.9
2018-09-11T06:19:00.864Z,99.9
2018-09-11T06:24:03.583Z,96
2018-09-11T06:29:05.813Z,69.3
2018-09-11T06:34:08.248Z,17.5
2018-09-11T06:39:10.891Z,6.7
2018-09-11T06:44:13.218Z,3.7
2018-09-11T06:49:15.597Z,1
2018-09-11T06:54:18.605Z,1.3
2018-09-11T06:59:20.831Z,1.4
2018-09-11T07:04:23.114Z,2.6
2018-09-11T07:09:25.527Z,1.3
2018-09-11T07:14:27.919Z,1
2018-09-11T07:19:30.867Z,1
2018-09-11T07:24:32.904Z,1
2018-09-11T07:29:35.284Z,1
2018-09-11T07:34:37.753Z,1
2018-09-11T07:39:40.341Z,1
2018-09-11T07:44:42.685Z,1
2018-09-11T07:49:45.152Z,1
2018-09-11T07:54:47.792Z,1
2018-09-11T07:59:50.124Z,1
2018-09-11T08:04:52.629Z,1
2018-09-11T08:09:54.963Z,1
2018-09-11T08:14:57.426Z,1
2018-09-11T08:19:59.989Z,1
2018-09-11T08:25:02.414Z,1
2018-09-11T08:30:04.886Z,1
2018-09-11T08:35:07.349Z,1
2018-09-11T08:40:09.765Z,1
2018-09-11T08:45:12.192Z,1
2018-09-11T08:50:14.824Z,1
2018-09-11T08:55:17.162Z,1
2018-09-11T09:00:19.690Z,1
2018-09-11T09:05:22.048Z,1
2018-09-11T09:10:25.256Z,1
2018-09-11T09:15:27.349Z,1
2018-09-11T09:20:29.413Z,1
2018-09-11T09:25:31.857Z,1
2018-09-11T09:30:34.328Z,1
2018-09-11T09:35:36.799Z,1
2018-09-11T09:40:39.224Z,1
2018-09-11T09:45:41.682Z,1
2018-09-11T09:50:44.174Z,1
2018-09-11T09:55:46.622Z,1
2018-09-11T10:00:49.128Z,1
2018-09-11T10:05:51.516Z,1
2018-09-11T10:10:53.976Z,1
2018-09-11T10:15:56.476Z,1
2018-09-11T10:20:58.898Z,1
2018-09-11T10:26:01.484Z,1
2018-09-11T10:31:03.885Z,1
2018-09-11T10:36:06.346Z,1
2018-09-11T10:41:08.727Z,1
2018-09-11T10:46:11.382Z,1
2018-09-11T10:51:13.696Z,1
2018-09-11T10:56:16.118Z,1
2018-09-11T11:01:18.587Z,1
2018-09-11T11:06:21.085Z,1
2018-09-11T11:11:23.489Z,1
2018-09-11T11:16:25.928Z,1
2018-09-11T11:21:29.182Z,1
2018-09-11T11:26:30.864Z,1
2018-09-11T11:31:33.463Z,1
2018-09-11T11:36:35.885Z,1
2018-09-11T11:41:38.575Z,1
2018-09-11T11:46:40.770Z,1
2018-09-11T11:51:43.283Z,1
2018-09-11T11:56:45.636Z,1
2018-09-11T12:01:48.235Z,1
2018-09-11T12:06:50.669Z,1
2018-09-11T12:11:53.029Z,1
2018-09-11T12:16:55.551Z,1
2018-09-11T12:21:57.932Z,1
2018-09-11T12:27:00.698Z,1
2018-09-11T12:32:07.841Z,1
2018-09-11T12:37:05.316Z,1
2018-09-11T12:42:07.925Z,1
2018-09-11T12:47:10.300Z,1
2018-09-11T12:52:12.746Z,1
2018-09-11T12:57:15.146Z,1
2018-09-11T13:02:17.603Z,1
2018-09-11T13:07:20.041Z,1
2018-09-11T13:12:27.671Z,1
2018-09-11T13:17:24.977Z,1
2018-09-11T13:22:27.448Z,1
2018-09-11T13:27:29.900Z,1
2018-09-11T13:32:32.379Z,1
2018-09-11T13:37:34.792Z,1
2018-09-11T13:42:37.347Z,1
2018-09-11T13:47:39.733Z,1
2018-09-11T13:52:42.164Z,1
2018-09-11T13:57:44.615Z,1
2018-09-11T14:02:47.099Z,1
2018-09-11T14:07:49.579Z,1
2018-09-11T14:12:52.000Z,1
2018-09-11T14:17:54.521Z,1
2018-09-11T14:22:56.927Z,1
2018-09-11T14:27:59.523Z,1
2018-09-11T14:33:07.034Z,1
2018-09-11T14:38:04.319Z,1
2018-09-11T14:43:06.781Z,1
2018-09-11T14:48:09.217Z,1
2018-09-11T14:53:11.763Z,1
2018-09-11T14:58:14.186Z,1
2018-09-11T15:03:16.598Z,1
2018-09-11T15:08:19.043Z,1
2018-09-11T15:13:21.868Z,1
2018-09-11T15:18:24.029Z,1
2018-09-11T15:23:26.411Z,1
2018-09-11T15:28:29.175Z,1
2018-09-11T15:33:31.381Z,1
2018-09-11T15:38:33.810Z,1
2018-09-11T15:43:36.309Z,1
2018-09-11T15:48:38.774Z,1
2018-09-11T15:53:41.181Z,1
2018-09-11T15:58:43.631Z,1
2018-09-11T16:03:46.104Z,1
2018-09-11T16:08:48.554Z,1
2018-09-11T16:13:51.093Z,1
2018-09-11T16:18:53.613Z,1
2018-09-11T16:23:55.954Z,1
2018-09-11T16:28:58.402Z,1
2018-09-11T16:34:00.834Z,1
2018-09-11T16:39:03.420Z,1
2018-09-11T16:44:06.302Z,1
2018-09-11T16:49:08.220Z,1
2018-09-11T16:54:10.716Z,1
2018-09-11T16:59:13.156Z,1
2018-09-11T17:04:15.605Z,1
2018-09-11T17:09:18.101Z,1
2018-09-11T17:14:20.511Z,1
2018-09-11T17:19:23.035Z,1
2018-09-11T17:24:25.450Z,1
2018-09-11T17:29:27.898Z,1
2018-09-11T17:34:30.350Z,1
2018-09-11T17:39:32.865Z,1
2018-09-11T17:44:35.342Z,1
2018-09-11T17:49:37.828Z,1
2018-09-11T17:54:40.230Z,1
2018-09-11T17:59:42.653Z,1
2018-09-11T18:04:45.130Z,1
2018-09-11T18:09:47.578Z,1
2018-09-11T18:14:50.169Z,1
2018-09-11T18:19:52.480Z,1
2018-09-11T18:24:54.947Z,1
2018-09-11T18:29:57.421Z,1
2018-09-11T18:34:59.893Z,1
2018-09-11T18:40:02.360Z,1
2018-09-11T18:45:04.834Z,1
2018-09-11T18:50:07.464Z,1
2018-09-11T18:55:09.708Z,1.7
2018-09-11T19:00:12.216Z,2.6
2018-09-11T19:05:14.667Z,2.6
2018-09-11T19:10:17.080Z,2.5
2018-09-11T19:15:19.711Z,3.3
2018-09-11T19:20:22.108Z,4.4
2018-09-11T19:25:24.426Z,4.8
2018-09-11T19:30:26.964Z,5.2
2018-09-11T19:35:29.403Z,4.4
2018-09-11T19:40:31.853Z,4.8
2018-09-11T19:45:34.590Z,2.3
2018-09-11T19:50:36.846Z,2.4
2018-09-11T19:55:39.192Z,2.4
2018-09-11T20:00:41.788Z,1
2018-09-11T20:05:44.131Z,1
2018-09-11T20:10:46.687Z,1
2018-09-11T20:15:49.029Z,1
2018-09-11T20:20:51.537Z,1
2018-09-11T20:25:53.987Z,1
2018-09-11T20:30:56.381Z,1.1
2018-09-11T20:35:58.858Z,2.3
2018-09-11T20:41:01.329Z,4.5
2018-09-11T20:46:03.785Z,4.5
2018-09-11T20:51:06.565Z,4.6
2018-09-11T20:56:08.730Z,5.6
2018-09-11T21:01:11.129Z,5.9
2018-09-11T21:06:13.685Z,7.8
2018-09-11T21:11:16.085Z,10.4
2018-09-11T21:16:18.561Z,9.2
2018-09-11T21:21:21.052Z,10
2018-09-11T21:26:23.428Z,10.8
2018-09-11T21:31:25.887Z,10.4
2018-09-11T21:36:28.354Z,10.9
2018-09-11T21:41:30.823Z,11.2
2018-09-11T21:46:33.265Z,13.2
2018-09-11T21:51:35.776Z,13.4
2018-09-11T21:56:38.216Z,12.7
2018-09-11T22:01:40.633Z,14.5
2018-09-11T22:06:43.113Z,13.5
2018-09-11T22:11:45.831Z,15.9
2018-09-11T22:16:48.029Z,19
2018-09-11T22:21:50.484Z,21.8
2018-09-11T22:26:53.062Z,25
2018-09-11T22:31:55.370Z,31.1
2018-09-11T22:36:57.873Z,36
2018-09-11T22:42:00.343Z,38.2
2018-09-11T22:47:02.777Z,41
2018-09-11T22:52:05.261Z,46.4
2018-09-11T22:57:07.996Z,48.1
2018-09-11T23:02:10.282Z,57.8
2018-09-11T23:07:12.676Z,58.9
2018-09-11T23:12:15.037Z,61.5
2018-09-11T23:17:17.535Z,62.6
2018-09-11T23:22:20.010Z,71.4
2018-09-11T23:27:22.621Z,75.5
2018-09-11T23:32:24.909Z,80.2
2018-09-11T23:37:27.361Z,82.9
2018-09-11T23:42:29.823Z,85.9
2018-09-11T23:47:32.281Z,88.7
2018-09-11T23:52:34.846Z,91
2018-09-11T23:57:37.221Z,90
